Time;durP1;ratioP1;P1;durP2;ratioP2;P2;SDS_P1;SDS_P2;PMS_P1;PMS_P2;Temp;Humidity;BMP_temperature;BMP_pressure;BME280_temperature;BME280_humidity;BME280_pressure;Samples;Min_cycle;Max_cycle;Signal;HPM_P1;HPM_P2
2021/10/21 00:05:37;;;;;;;8.98;5.25;;;;;;;11.21;100.00;98237.45;4366903;81;28441;-77
2021/10/21 00:11:39;;;;;;;10.58;6.28;;;;;;;10.96;100.00;98219.18;4326925;81;28510;-79
2021/10/21 00:17:40;;;;;;;7.53;5.10;;;;;;;10.78;100.00;98211.77;4398887;80;28489;-78
2021/10/21 00:23:42;;;;;;;8.88;4.78;;;;;;;10.76;100.00;98209.84;4396639;79;28506;-77
2021/10/21 00:29:43;;;;;;;9.98;5.25;;;;;;;10.71;100.00;98206.56;4371659;81;28452;-78
2021/10/21 00:35:44;;;;;;;9.98;5.37;;;;;;;10.68;100.00;98206.28;4394300;80;28452;-78
2021/10/21 00:41:45;;;;;;;10.10;5.70;;;;;;;10.43;100.00;98199.53;4354615;81;28449;-77
2021/10/21 00:47:47;;;;;;;9.55;5.17;;;;;;;10.30;100.00;98185.38;4379650;80;28461;-78
2021/10/21 00:53:48;;;;;;;7.72;4.75;;;;;;;10.26;100.00;98192.34;4378532;81;28461;-78
2021/10/21 00:59:52;;;;;;;10.95;5.45;;;;;;;10.12;100.00;98179.80;4333730;81;28495;-78
2021/10/21 01:05:54;;;;;;;10.60;5.78;;;;;;;10.17;100.00;98183.88;4333765;81;28511;-78
2021/10/21 01:11:55;;;;;;;8.78;5.65;;;;;;;10.01;100.00;98176.16;4357797;80;28484;-78
2021/10/21 01:17:57;;;;;;;8.08;4.58;;;;;;;9.89;100.00;98164.72;4385884;80;28501;-78
2021/10/21 01:23:58;;;;;;;7.70;4.15;;;;;;;9.76;100.00;98159.17;4334444;80;28448;-79
2021/10/21 01:29:59;;;;;;;7.67;5.00;;;;;;;9.50;100.00;98141.37;4349484;80;28498;-78
2021/10/21 01:36:02;;;;;;;10.53;5.30;;;;;;;9.47;100.00;98130.59;4356761;81;28482;-79
2021/10/21 01:42:03;;;;;;;8.60;5.40;;;;;;;9.28;100.00;98119.84;4370916;81;28456;-78
2021/10/21 01:48:05;;;;;;;7.22;4.30;;;;;;;9.34;100.00;98118.33;4354195;80;28446;-78
2021/10/21 01:54:07;;;;;;;7.83;4.12;;;;;;;9.22;100.00;98105.55;4356967;81;28544;-77
2021/10/21 02:00:13;;;;;;;8.58;5.15;;;;;;;9.34;100.00;98098.21;4363896;81;28474;-78
2021/10/21 02:06:15;;;;;;;9.20;5.22;;;;;;;9.25;100.00;98098.89;4311352;81;28475;-77
2021/10/21 02:12:16;;;;;;;8.05;5.33;;;;;;;9.24;100.00;98091.36;4301741;81;28588;-77
2021/10/21 02:18:18;;;;;;;9.15;5.42;;;;;;;9.08;100.00;98083.61;4425648;79;28443;-77
2021/10/21 02:24:19;;;;;;;7.55;4.15;;;;;;;9.31;100.00;98081.80;4379126;80;28433;-76
2021/10/21 02:30:22;;;;;;;10.13;4.70;;;;;;;9.17;100.00;98079.46;4331583;81;28472;-77
2021/10/21 02:36:23;;;;;;;7.17;4.87;;;;;;;9.11;100.00;98087.16;4381747;81;28474;-76
2021/10/21 02:42:24;;;;;;;9.55;5.33;;;;;;;8.89;100.00;98069.66;4352575;81;28506;-77
2021/10/21 02:48:26;;;;;;;9.00;5.03;;;;;;;8.61;100.00;98057.42;4349065;81;28536;-77
2021/10/21 02:54:27;;;;;;;8.38;5.00;;;;;;;8.63;100.00;98057.98;4411577;80;28556;-77
2021/10/21 03:00:28;;;;;;;9.38;4.08;;;;;;;8.56;100.00;98048.49;4433074;80;28465;-77
2021/10/21 03:06:29;;;;;;;12.40;4.53;;;;;;;8.46;100.00;98023.63;4437857;80;28469;-77
2021/10/21 03:12:30;;;;;;;7.35;5.20;;;;;;;8.41;100.00;98021.68;4418940;79;28544;-77
2021/10/21 03:18:32;;;;;;;10.82;6.28;;;;;;;8.46;100.00;98014.26;4416392;79;28469;-77
2021/10/21 03:24:33;;;;;;;8.95;5.50;;;;;;;8.61;100.00;98010.53;4450971;79;28468;-77
2021/10/21 03:30:34;;;;;;;8.23;4.97;;;;;;;8.49;100.00;98010.57;4454747;80;28482;-77
2021/10/21 03:36:36;;;;;;;7.10;3.87;;;;;;;8.44;100.00;98004.32;4453408;80;28465;-76
2021/10/21 03:42:38;;;;;;;7.67;4.30;;;;;;;8.41;100.00;97996.23;4426057;79;28493;-76
2021/10/21 03:48:39;;;;;;;8.93;5.60;;;;;;;8.55;100.00;97999.98;4436307;80;28469;-76
2021/10/21 03:54:40;;;;;;;8.20;5.30;;;;;;;8.29;100.00;97995.50;4441398;80;28488;-77
2021/10/21 04:00:42;;;;;;;8.85;5.83;;;;;;;8.24;100.00;97981.49;4431707;80;28501;-77
2021/10/21 04:06:43;;;;;;;8.05;4.95;;;;;;;8.14;100.00;97979.47;4443256;80;28486;-78
2021/10/21 04:12:45;;;;;;;7.95;4.12;;;;;;;8.17;100.00;97974.13;4396246;80;28522;-77
2021/10/21 04:18:47;;;;;;;10.25;5.37;;;;;;;8.41;100.00;97967.31;4351682;81;28561;-77
2021/10/21 04:24:48;;;;;;;10.25;5.33;;;;;;;8.23;100.00;97944.55;4430078;80;28433;-78
2021/10/21 04:30:49;;;;;;;8.53;5.53;;;;;;;8.33;100.00;97939.88;4447212;79;28565;-78
2021/10/21 04:36:52;;;;;;;9.55;4.90;;;;;;;8.35;100.00;97924.91;4371508;81;28490;-76
2021/10/21 04:42:54;;;;;;;8.63;4.65;;;;;;;8.33;100.00;97913.09;4363718;80;28635;-78
2021/10/21 04:48:55;;;;;;;11.55;4.75;;;;;;;8.39;100.00;97907.83;4389379;80;28532;-79
2021/10/21 04:54:57;;;;;;;7.22;4.45;;;;;;;8.47;100.00;97894.82;4382937;80;28530;-78
2021/10/21 05:00:58;;;;;;;7.80;5.50;;;;;;;8.64;100.00;97887.30;4374283;80;28521;-75
2021/10/21 05:06:59;;;;;;;9.38;5.78;;;;;;;8.65;100.00;97870.19;4429633;80;28450;-78
2021/10/21 05:13:01;;;;;;;11.50;5.60;;;;;;;8.61;100.00;97856.98;4411030;79;28543;-80
2021/10/21 05:19:02;;;;;;;9.15;5.25;;;;;;;8.63;100.00;97846.31;4293793;81;28545;-79
2021/10/21 05:25:05;;;;;;;8.90;4.50;;;;;;;8.63;100.00;97838.80;4307096;81;28460;-79
2021/10/21 05:31:07;;;;;;;8.93;4.90;;;;;;;8.51;100.00;97841.05;4333044;82;28500;-77
2021/10/21 05:37:08;;;;;;;10.08;5.83;;;;;;;8.57;100.00;97835.23;4228432;83;28455;-80
2021/10/21 05:43:10;;;;;;;11.85;6.22;;;;;;;8.51;100.00;97832.23;4266067;82;28481;-80
2021/10/21 05:49:12;;;;;;;12.85;6.33;;;;;;;8.63;100.00;97814.16;4283371;82;28491;-80
2021/10/21 05:55:13;;;;;;;8.73;4.90;;;;;;;8.58;100.00;97795.33;4294151;83;28504;-77
2021/10/21 06:01:14;;;;;;;11.40;5.50;;;;;;;8.59;100.00;97802.33;4270715;82;28486;-80
2021/10/21 06:07:16;;;;;;;13.10;4.92;;;;;;;8.63;100.00;97802.62;4265002;81;28538;-78
2021/10/21 06:13:17;;;;;;;11.63;5.37;;;;;;;8.99;100.00;97780.80;4290742;81;28487;-79
2021/10/21 06:19:20;;;;;;;16.05;5.90;;;;;;;8.91;100.00;97777.52;4380144;79;28464;-82
2021/10/21 06:25:22;;;;;;;12.47;5.97;;;;;;;8.97;100.00;97770.86;4363967;80;28483;-79
2021/10/21 06:31:24;;;;;;;16.23;4.95;;;;;;;8.98;100.00;97761.75;4373179;80;28514;-80
2021/10/21 06:37:25;;;;;;;12.05;5.03;;;;;;;9.00;100.00;97749.72;4447765;78;28434;-82
2021/10/21 06:43:26;;;;;;;20.95;7.20;;;;;;;9.12;100.00;97730.81;4426866;79;28465;-82
2021/10/21 06:49:30;;;;;;;23.95;8.15;;;;;;;9.38;100.00;97743.09;4426334;79;28509;-82
2021/10/21 06:55:31;;;;;;;19.30;7.30;;;;;;;9.67;100.00;97734.75;4366046;80;28522;-81
2021/10/21 07:01:32;;;;;;;20.10;7.58;;;;;;;9.82;100.00;97719.80;4422068;79;28454;-82
2021/10/21 07:07:34;;;;;;;16.87;7.28;;;;;;;10.07;100.00;97713.78;4361502;80;28546;-82
2021/10/21 07:13:36;;;;;;;24.18;8.13;;;;;;;10.38;100.00;97704.52;4380492;80;28471;-81
2021/10/21 07:19:38;;;;;;;19.23;8.43;;;;;;;10.74;100.00;97676.98;4341759;81;28471;-79
2021/10/21 07:25:39;;;;;;;21.27;8.73;;;;;;;11.03;100.00;97637.50;4313576;81;28481;-80
2021/10/21 07:31:40;;;;;;;22.87;8.58;;;;;;;11.27;100.00;97642.33;4393706;80;28503;-79
2021/10/21 07:37:42;;;;;;;16.17;8.00;;;;;;;11.66;100.00;97647.66;4381645;80;28489;-81
2021/10/21 07:43:43;;;;;;;18.23;9.50;;;;;;;12.18;100.00;97652.39;4380543;80;28519;-81
2021/10/21 07:49:45;;;;;;;21.50;9.30;;;;;;;12.58;100.00;97685.38;4382080;80;28523;-84
2021/10/21 07:55:46;;;;;;;20.25;10.25;;;;;;;12.75;100.00;97683.11;4336248;80;28506;-80
2021/10/21 08:01:48;;;;;;;19.57;8.88;;;;;;;12.96;100.00;97682.45;4399631;80;28511;-80
2021/10/21 08:07:49;;;;;;;20.00;7.87;;;;;;;13.09;100.00;97677.50;4378596;80;28535;-80
2021/10/21 08:13:52;;;;;;;15.35;7.53;;;;;;;13.33;100.00;97653.30;4383353;80;28476;-79
2021/10/21 08:19:53;;;;;;;15.48;7.47;;;;;;;13.57;100.00;97626.12;4418076;79;28497;-80
2021/10/21 08:25:54;;;;;;;15.20;8.13;;;;;;;13.90;100.00;97606.05;4433895;78;28485;-77
2021/10/21 08:32:01;;;;;;;14.38;7.45;;;;;;;14.26;100.00;97615.61;4432667;79;28537;-78
2021/10/21 08:38:01;;;;;;;14.98;8.28;;;;;;;14.62;100.00;97624.58;4425049;79;28476;-78
2021/10/21 08:44:04;;;;;;;12.53;7.00;;;;;;;15.00;100.00;97627.30;4362237;80;28488;-78
2021/10/21 08:50:07;;;;;;;12.05;6.83;;;;;;;15.27;100.00;97666.41;4403176;79;28445;-77
2021/10/21 08:56:09;;;;;;;19.37;7.40;;;;;;;15.61;100.00;97662.57;4358941;80;28519;-81
2021/10/21 09:02:16;;;;;;;14.50;7.58;;;;;;;15.94;100.00;97673.12;4344109;80;28524;-80
2021/10/21 09:08:18;;;;;;;12.98;7.50;;;;;;;16.19;100.00;97689.45;4358867;81;28498;-81
2021/10/21 09:14:18;;;;;;;12.40;7.55;;;;;;;16.44;92.13;97707.67;4356381;80;28528;-82
2021/10/21 09:20:25;;;;;;;10.58;7.15;;;;;;;16.72;93.44;97718.50;4348048;80;28516;-80
2021/10/21 09:26:26;;;;;;;12.80;7.97;;;;;;;17.02;92.41;97739.33;4361240;80;28531;-80
2021/10/21 09:32:35;;;;;;;11.05;7.05;;;;;;;17.46;87.28;97738.34;4362014;80;28503;-83
2021/10/21 09:38:34;;;;;;;9.73;6.22;;;;;;;17.80;79.53;97737.49;4355162;81;28558;-80
2021/10/21 09:44:35;;;;;;;11.48;6.12;;;;;;;18.34;76.87;97729.87;4353400;81;28548;-80
2021/10/21 09:50:41;;;;;;;8.55;6.25;;;;;;;18.78;73.51;97709.02;4352479;80;28531;-79
2021/10/21 09:57:04;;;;;;;9.00;6.40;;;;;;;18.92;72.56;97693.08;4338578;80;28573;-80
2021/10/21 10:03:19;;;;;;;8.13;6.20;;;;;;;19.12;72.96;97709.94;4366049;80;28507;-81
2021/10/21 10:09:21;;;;;;;8.23;6.28;;;;;;;18.86;69.01;97718.30;4355817;80;28472;-80
2021/10/21 10:15:22;;;;;;;11.65;6.67;;;;;;;18.91;70.77;97734.50;4377053;80;28461;-81
2021/10/21 10:21:35;;;;;;;12.75;7.20;;;;;;;18.60;71.20;97746.29;4358835;80;28520;-80
2021/10/21 10:27:38;;;;;;;10.78;7.22;;;;;;;18.50;72.73;97749.30;4419765;79;28504;-81
2021/10/21 10:33:41;;;;;;;10.30;7.15;;;;;;;18.37;73.32;97758.59;4374655;80;28520;-78
2021/10/21 10:39:50;;;;;;;10.43;7.83;;;;;;;18.22;73.36;97766.64;4354314;80;28502;-78
2021/10/21 10:45:52;;;;;;;12.93;7.50;;;;;;;18.04;75.16;97762.23;4426890;79;28465;-78
2021/10/21 10:51:59;;;;;;;10.98;7.25;;;;;;;17.86;77.34;97776.22;4427736;79;28454;-77
2021/10/21 10:58:01;;;;;;;9.65;6.92;;;;;;;17.64;75.76;97791.43;4376648;80;28476;-80
2021/10/21 11:04:02;;;;;;;8.58;5.55;;;;;;;17.77;77.11;97811.52;4385957;80;28432;-76
2021/10/21 11:10:30;;;;;;;5.78;4.80;;;;;;;17.90;75.67;97814.72;4430541;79;28448;-78
2021/10/21 11:16:53;;;;;;;12.18;5.42;;;;;;;18.01;73.60;97811.74;4432826;78;28465;-79
2021/10/21 11:23:03;;;;;;;8.05;5.28;;;;;;;17.88;73.79;97833.83;4361928;80;28503;-77
2021/10/21 11:29:05;;;;;;;7.37;5.05;;;;;;;17.62;74.83;97831.16;4371411;79;28512;-79
2021/10/21 11:35:14;;;;;;;9.33;5.08;;;;;;;17.58;77.62;97809.77;4413084;79;28474;-77
2021/10/21 11:41:21;;;;;;;7.50;4.78;;;;;;;17.48;76.92;97805.39;4392142;79;28466;-77
2021/10/21 11:47:25;;;;;;;9.50;4.60;;;;;;;17.55;76.08;97793.55;4396176;79;28550;-79
2021/10/21 11:53:29;;;;;;;6.47;4.50;;;;;;;17.53;76.66;97787.59;4373824;80;28480;-77
2021/10/21 11:59:43;;;;;;;8.38;4.10;;;;;;;17.29;77.01;97775.68;4425735;79;28501;-74
2021/10/21 12:05:46;;;;;;;5.42;4.53;;;;;;;17.11;78.67;97758.41;4361584;81;28499;-77
2021/10/21 12:11:47;;;;;;;7.40;4.05;;;;;;;16.90;79.30;97761.53;4370317;80;28558;-81
2021/10/21 12:17:49;;;;;;;5.22;3.80;;;;;;;16.82;79.98;97747.34;4329965;80;28585;-76
2021/10/21 12:23:53;;;;;;;9.45;4.08;;;;;;;16.77;80.59;97755.58;4330905;80;28453;-77
2021/10/21 12:30:06;;;;;;;6.62;3.85;;;;;;;16.83;79.43;97763.88;4319146;80;28486;-77
2021/10/21 12:36:18;;;;;;;5.47;3.45;;;;;;;16.84;79.76;97758.13;4342921;80;28580;-78
2021/10/21 12:42:27;;;;;;;5.42;3.33;;;;;;;16.77;78.14;97752.87;4314855;82;28440;-76
2021/10/21 12:48:32;;;;;;;6.83;3.22;;;;;;;16.75;75.25;97751.80;4346364;80;28500;-76
2021/10/21 12:54:39;;;;;;;6.20;3.50;;;;;;;16.77;74.70;97760.47;4306485;82;28530;-76
2021/10/21 13:00:49;;;;;;;5.45;3.00;;;;;;;16.77;72.77;97763.19;4384913;79;28494;-76
2021/10/21 13:06:51;;;;;;;4.28;3.15;;;;;;;16.72;72.67;97758.66;4413045;79;28489;-76
2021/10/21 13:12:53;;;;;;;4.47;2.95;;;;;;;16.69;73.53;97761.17;4387119;79;28457;-76
2021/10/21 13:18:59;;;;;;;4.50;3.00;;;;;;;16.64;73.14;97764.80;4370904;80;28544;-76
2021/10/21 13:25:02;;;;;;;5.50;2.92;;;;;;;16.64;74.36;97785.14;4345430;80;28508;-76
2021/10/21 13:31:03;;;;;;;5.80;3.10;;;;;;;16.62;73.55;97779.77;4389946;80;28481;-78
2021/10/21 13:37:08;;;;;;;4.50;3.00;;;;;;;16.69;73.16;97799.17;4360030;80;28508;-75
2021/10/21 13:43:10;;;;;;;4.47;2.62;;;;;;;16.67;72.31;97795.39;4355691;80;28485;-77
2021/10/21 13:49:13;;;;;;;4.85;2.80;;;;;;;16.66;70.35;97795.67;4350132;81;28528;-79
2021/10/21 13:55:15;;;;;;;6.33;2.40;;;;;;;16.62;70.55;97803.64;4338203;80;28476;-78
2021/10/21 14:01:21;;;;;;;5.03;2.67;;;;;;;16.53;70.96;97814.37;4351057;80;28479;-75
2021/10/21 14:07:24;;;;;;;8.28;3.17;;;;;;;16.53;72.11;97817.08;4369302;80;28486;-74
2021/10/21 14:13:27;;;;;;;9.35;3.00;;;;;;;16.49;70.82;97839.15;4362065;80;28548;-77
2021/10/21 14:19:28;;;;;;;5.72;2.90;;;;;;;16.51;71.59;97839.65;4332860;81;28480;-77
2021/10/21 14:25:30;;;;;;;5.55;2.83;;;;;;;16.48;71.94;97819.91;4383539;79;28448;-79
2021/10/21 14:31:32;;;;;;;5.30;2.83;;;;;;;16.45;70.51;97831.34;4370355;80;28462;-77
2021/10/21 14:37:38;;;;;;;4.15;2.70;;;;;;;16.58;70.59;97839.25;4348213;80;28444;-79
2021/10/21 14:43:37;;;;;;;4.60;2.60;;;;;;;16.61;68.83;97844.63;4374114;79;28592;-79
2021/10/21 14:49:39;;;;;;;5.05;2.20;;;;;;;16.71;67.27;97860.72;4377098;81;28511;-76
2021/10/21 14:55:42;;;;;;;6.35;2.37;;;;;;;16.68;67.08;97858.62;4425820;80;28475;-77
2021/10/21 15:01:44;;;;;;;5.50;2.37;;;;;;;16.58;67.82;97867.73;4420773;79;28501;-80
2021/10/21 15:08:12;;;;;;;9.10;2.45;;;;;;;16.48;65.16;97874.16;4436057;79;28465;-78
2021/10/21 15:26:33;;;;;;;6.17;1.62;;;;;;;16.10;58.98;97904.91;4437451;78;28466;-81
2021/10/21 15:32:37;;;;;;;5.95;2.00;;;;;;;15.89;60.46;97911.96;4421239;80;28467;-79
2021/10/21 15:38:44;;;;;;;4.35;1.62;;;;;;;15.74;60.49;97917.05;4437353;78;28479;-76
2021/10/21 15:51:16;;;;;;;4.47;1.87;;;;;;;15.55;62.19;97932.48;4444583;80;28491;-77
2021/10/21 16:09:58;;;;;;;8.78;2.02;;;;;;;15.31;63.26;97960.41;4403331;80;28434;-78
2021/10/21 16:15:54;;;;;;;5.28;1.82;;;;;;;15.26;63.70;97999.72;4384427;81;28512;-77
2021/10/21 16:22:04;;;;;;;5.28;2.08;;;;;;;15.20;63.88;98000.32;4349233;81;28440;-78
2021/10/21 16:28:08;;;;;;;3.65;1.75;;;;;;;15.18;64.53;97999.24;4364615;81;28469;-76
2021/10/21 16:34:10;;;;;;;9.68;2.33;;;;;;;15.19;64.52;98009.54;4324257;81;28609;-76
2021/10/21 16:40:13;;;;;;;4.15;1.77;;;;;;;15.18;64.25;98009.28;4351140;81;28499;-78
2021/10/21 16:46:15;;;;;;;4.33;1.80;;;;;;;15.24;63.78;98022.22;4356856;80;28515;-78
2021/10/21 16:52:17;;;;;;;6.70;2.42;;;;;;;15.24;63.73;98033.84;4341543;80;28527;-76
2021/10/21 16:58:19;;;;;;;5.53;2.10;;;;;;;15.20;63.69;98050.41;4366578;80;28459;-80
2021/10/21 17:04:20;;;;;;;5.85;2.05;;;;;;;15.12;63.72;98061.31;4368568;81;28487;-77
2021/10/21 17:10:21;;;;;;;7.05;2.47;;;;;;;15.09;63.75;98059.72;4362210;81;28590;-78
2021/10/21 17:16:23;;;;;;;7.22;2.30;;;;;;;14.99;63.95;98060.07;4370709;81;28486;-77
2021/10/21 17:22:25;;;;;;;4.90;2.02;;;;;;;14.90;63.73;98069.89;4357762;80;28464;-78
2021/10/21 17:28:30;;;;;;;4.70;2.08;;;;;;;14.77;64.59;98083.52;4397638;80;28484;-76
2021/10/21 17:34:31;;;;;;;4.62;1.95;;;;;;;14.78;63.37;98098.13;4370662;79;28527;-84
2021/10/21 17:40:35;;;;;;;6.70;1.80;;;;;;;14.67;63.48;98113.31;4379148;80;28432;-80
2021/10/21 17:46:36;;;;;;;5.60;1.90;;;;;;;14.56;63.23;98132.88;4364124;79;28530;-81
2021/10/21 17:52:38;;;;;;;5.37;2.00;;;;;;;14.54;64.27;98140.47;4365284;81;28532;-79
2021/10/21 17:58:40;;;;;;;5.87;2.20;;;;;;;14.50;65.89;98143.70;4437253;80;28520;-81
2021/10/21 18:04:41;;;;;;;6.53;2.45;;;;;;;14.52;66.73;98139.38;4407470;80;28451;-81
2021/10/21 18:10:43;;;;;;;7.25;2.42;;;;;;;14.41;67.71;98137.83;4398365;80;29089;-79
2021/10/21 18:16:45;;;;;;;6.28;2.50;;;;;;;14.28;68.81;98147.34;4409078;79;28515;-82
2021/10/21 18:22:46;;;;;;;7.78;2.92;;;;;;;14.11;70.11;98151.21;4410599;80;28445;-79
2021/10/21 18:28:47;;;;;;;5.78;2.65;;;;;;;13.91;71.67;98175.86;4358862;81;28465;-79
2021/10/21 18:34:48;;;;;;;6.47;2.75;;;;;;;13.72;73.01;98153.21;4377738;81;28486;-79
2021/10/21 18:40:52;;;;;;;7.80;3.22;;;;;;;13.59;74.11;98151.35;4422651;79;28467;-80
2021/10/21 18:46:53;;;;;;;7.25;3.10;;;;;;;13.52;74.05;98175.91;4389617;80;28503;-80
2021/10/21 18:52:56;;;;;;;6.15;2.77;;;;;;;13.41;73.91;98188.33;4352677;80;28495;-80
2021/10/21 19:01:05;;;;;;;7.30;2.80;;;;;;;13.30;70.92;98184.28;4613433;76;63264;-79
2021/10/21 19:07:08;;;;;;;7.00;2.87;;;;;;;13.22;69.79;98188.34;4536498;78;28491;-86
2021/10/21 19:13:12;;;;;;;6.15;2.70;;;;;;;13.14;70.00;98192.09;4538338;78;28515;-82
2021/10/21 19:19:22;;;;;;;5.60;2.40;;;;;;;13.03;69.98;98195.33;4542801;78;28471;-83
2021/10/21 19:25:19;;;;;;;7.17;2.75;;;;;;;12.94;68.69;98205.30;4484395;77;28540;-85
2021/10/21 19:31:23;;;;;;;7.33;2.30;;;;;;;12.80;67.90;98225.75;4532239;77;28537;-84
2021/10/21 19:37:25;;;;;;;4.55;2.12;;;;;;;12.70;67.82;98230.59;4568722;77;28433;-83
2021/10/21 19:43:29;;;;;;;7.40;2.20;;;;;;;12.61;68.24;98245.12;4531182;77;28494;-84
2021/10/21 19:49:31;;;;;;;5.03;2.12;;;;;;;12.46;68.22;98250.44;4564183;77;28516;-85
2021/10/21 19:55:32;;;;;;;2.83;1.42;;;;;;;12.28;67.91;98265.98;4556770;76;28511;-82
2021/10/21 20:01:33;;;;;;;4.00;1.30;;;;;;;12.25;66.54;98273.25;4500261;77;28510;-84
2021/10/21 20:07:36;;;;;;;3.27;1.60;;;;;;;12.12;66.22;98286.64;4460258;80;28490;-85
2021/10/21 20:13:39;;;;;;;4.65;1.57;;;;;;;12.02;65.66;98288.74;4593326;77;28510;-85
2021/10/21 20:19:42;;;;;;;4.50;1.42;;;;;;;11.85;67.12;98301.78;4557212;77;28572;-84
2021/10/21 20:25:46;;;;;;;7.25;1.60;;;;;;;11.77;67.60;98298.24;4533312;78;28468;-83
2021/10/21 20:31:47;;;;;;;3.33;1.12;;;;;;;11.65;68.25;98292.19;4522311;78;28486;-83
2021/10/21 20:37:49;;;;;;;3.08;1.20;;;;;;;11.51;68.94;98298.55;4533136;77;28508;-81
2021/10/21 20:43:51;;;;;;;2.87;1.27;;;;;;;11.33;69.19;98295.16;4509683;77;28465;-81
2021/10/21 20:49:52;;;;;;;3.58;1.07;;;;;;;11.25;68.79;98303.68;4503822;77;28469;-79
2021/10/21 20:55:54;;;;;;;2.90;1.00;;;;;;;11.18;68.42;98303.88;4510357;77;28546;-78
2021/10/21 21:01:56;;;;;;;1.90;0.90;;;;;;;11.15;66.66;98315.16;4550540;77;28463;-81
2021/10/21 21:07:58;;;;;;;3.12;0.80;;;;;;;11.13;65.92;98314.06;4456128;78;28462;-79
2021/10/21 21:14:00;;;;;;;3.47;0.90;;;;;;;11.21;63.86;98309.30;4484184;77;28458;-78
2021/10/21 21:20:04;;;;;;;1.72;0.60;;;;;;;11.14;64.35;98310.81;4508532;78;28497;-82
2021/10/21 21:26:06;;;;;;;1.80;0.60;;;;;;;11.10;64.07;98315.09;4508497;78;28502;-79
2021/10/21 21:32:07;;;;;;;2.30;0.70;;;;;;;11.15;62.77;98307.88;4509939;78;28476;-80
2021/10/21 21:38:09;;;;;;;2.27;0.68;;;;;;;11.23;61.94;98314.69;4459929;80;28523;-78
2021/10/21 21:44:10;;;;;;;1.60;0.70;;;;;;;11.16;62.63;98301.44;4460158;80;28509;-80
2021/10/21 21:50:12;;;;;;;4.37;1.00;;;;;;;11.03;63.93;98297.80;4462523;79;28595;-80
2021/10/21 21:56:13;;;;;;;1.70;0.70;;;;;;;10.87;65.13;98296.27;4522047;78;28531;-78
2021/10/21 22:02:14;;;;;;;1.80;0.50;;;;;;;10.77;65.91;98289.98;4523391;79;28551;-79
2021/10/21 22:08:15;;;;;;;3.12;0.57;;;;;;;10.64;66.19;98293.33;4523803;79;28498;-78
2021/10/21 22:14:19;;;;;;;1.37;0.70;;;;;;;10.78;63.49;98290.25;4523963;79;28517;-79
2021/10/21 22:20:21;;;;;;;1.50;0.30;;;;;;;10.77;63.21;98303.42;4527520;79;28521;-80
2021/10/21 22:26:22;;;;;;;3.45;0.53;;;;;;;10.88;61.59;98305.16;4528840;79;28491;-81
2021/10/21 22:32:25;;;;;;;3.42;0.50;;;;;;;10.98;60.86;98319.25;4528124;78;28592;-78
2021/10/21 22:38:26;;;;;;;3.75;0.70;;;;;;;10.93;60.57;98303.06;4527190;79;28492;-79
2021/10/21 22:44:27;;;;;;;2.98;0.62;;;;;;;10.92;61.02;98311.66;4527650;78;28605;-79
2021/10/21 22:50:32;;;;;;;3.22;0.55;;;;;;;10.92;60.94;98301.45;4527557;78;28620;-78
2021/10/21 22:56:34;;;;;;;2.45;0.50;;;;;;;10.86;60.98;98305.95;4527873;76;28531;-79
2021/10/21 23:02:36;;;;;;;2.33;0.50;;;;;;;10.76;61.55;98301.80;4535109;78;28483;-78
2021/10/21 23:08:37;;;;;;;2.75;0.60;;;;;;;10.77;60.19;98307.45;4535737;78;28483;-78
2021/10/21 23:14:40;;;;;;;1.62;0.50;;;;;;;10.73;60.29;98309.83;4535735;78;28494;-79
2021/10/21 23:20:41;;;;;;;2.17;0.45;;;;;;;10.76;60.13;98315.24;4535662;78;28489;-78
2021/10/21 23:26:43;;;;;;;3.77;0.70;;;;;;;10.81;59.50;98327.39;4536089;78;28482;-79
2021/10/21 23:32:44;;;;;;;1.60;0.42;;;;;;;10.89;58.63;98309.48;4535654;78;28483;-80
2021/10/21 23:38:48;;;;;;;4.10;0.50;;;;;;;10.94;58.25;98313.59;4535115;78;28493;-78
2021/10/21 23:44:49;;;;;;;1.55;0.45;;;;;;;10.95;58.11;98303.63;4536001;78;28521;-77
2021/10/21 23:50:50;;;;;;;1.12;0.40;;;;;;;10.99;57.26;98312.84;4536325;78;28503;-77
2021/10/21 23:56:52;;;;;;;1.07;0.33;;;;;;;10.98;57.67;98292.36;4536711;77;28619;-78
